sensor_id;sensor_type;location;lat;lon;timestamp;P1;durP1;ratioP1;P2;durP2;ratioP2
76351;SDS011;65179;47.786;19.138;2022-12-29T00:02:03;20.87;;;8.87;;
76351;SDS011;65179;47.786;19.138;2022-12-29T00:04:29;20.73;;;10.10;;
76351;SDS011;65179;47.786;19.138;2022-12-29T00:06:55;21.75;;;9.30;;
76351;SDS011;65179;47.786;19.138;2022-12-29T00:09:20;21.93;;;8.77;;
76351;SDS011;65179;47.786;19.138;2022-12-29T00:11:46;18.98;;;9.52;;
76351;SDS011;65179;47.786;19.138;2022-12-29T00:14:11;19.15;;;9.23;;
76351;SDS011;65179;47.786;19.138;2022-12-29T00:16:56;15.68;;;8.10;;
76351;SDS011;65179;47.786;19.138;2022-12-29T00:19:22;20.07;;;8.77;;
76351;SDS011;65179;47.786;19.138;2022-12-29T00:22:08;17.25;;;7.97;;
76351;SDS011;65179;47.786;19.138;2022-12-29T00:24:53;17.10;;;8.57;;
76351;SDS011;65179;47.786;19.138;2022-12-29T00:27:37;17.33;;;8.23;;
76351;SDS011;65179;47.786;19.138;2022-12-29T00:30:22;19.73;;;9.57;;
76351;SDS011;65179;47.786;19.138;2022-12-29T00:33:13;16.10;;;8.57;;
76351;SDS011;65179;47.786;19.138;2022-12-29T00:38:35;20.55;;;9.00;;
76351;SDS011;65179;47.786;19.138;2022-12-29T00:41:21;21.50;;;8.55;;
76351;SDS011;65179;47.786;19.138;2022-12-29T00:44:05;20.00;;;9.50;;
76351;SDS011;65179;47.786;19.138;2022-12-29T00:46:38;18.55;;;8.93;;
76351;SDS011;65179;47.786;19.138;2022-12-29T00:49:05;17.50;;;8.80;;
76351;SDS011;65179;47.786;19.138;2022-12-29T00:51:51;18.87;;;9.55;;
76351;SDS011;65179;47.786;19.138;2022-12-29T00:54:17;18.73;;;9.50;;
76351;SDS011;65179;47.786;19.138;2022-12-29T00:56:45;19.57;;;9.77;;
76351;SDS011;65179;47.786;19.138;2022-12-29T00:59:12;19.00;;;9.70;;
76351;SDS011;65179;47.786;19.138;2022-12-29T01:01:38;19.10;;;9.30;;
76351;SDS011;65179;47.786;19.138;2022-12-29T01:04:06;20.58;;;10.18;;
76351;SDS011;65179;47.786;19.138;2022-12-29T01:06:33;22.65;;;10.38;;
76351;SDS011;65179;47.786;19.138;2022-12-29T01:08:59;20.55;;;9.23;;
76351;SDS011;65179;47.786;19.138;2022-12-29T01:11:43;21.42;;;9.43;;
76351;SDS011;65179;47.786;19.138;2022-12-29T01:14:09;19.93;;;9.70;;
76351;SDS011;65179;47.786;19.138;2022-12-29T01:16:34;19.63;;;9.43;;
76351;SDS011;65179;47.786;19.138;2022-12-29T01:19:01;19.08;;;9.63;;
76351;SDS011;65179;47.786;19.138;2022-12-29T01:21:27;20.30;;;9.20;;
76351;SDS011;65179;47.786;19.138;2022-12-29T01:23:52;21.47;;;10.03;;
76351;SDS011;65179;47.786;19.138;2022-12-29T01:26:18;32.23;;;12.03;;
76351;SDS011;65179;47.786;19.138;2022-12-29T01:28:43;21.93;;;10.10;;
76351;SDS011;65179;47.786;19.138;2022-12-29T01:31:09;19.80;;;8.65;;
76351;SDS011;65179;47.786;19.138;2022-12-29T01:33:36;19.62;;;9.40;;
76351;SDS011;65179;47.786;19.138;2022-12-29T01:36:03;20.10;;;9.90;;
76351;SDS011;65179;47.786;19.138;2022-12-29T01:38:30;19.20;;;9.50;;
76351;SDS011;65179;47.786;19.138;2022-12-29T01:40:56;20.42;;;9.65;;
76351;SDS011;65179;47.786;19.138;2022-12-29T01:43:21;22.53;;;9.70;;
76351;SDS011;65179;47.786;19.138;2022-12-29T01:46:14;19.65;;;9.48;;
76351;SDS011;65179;47.786;19.138;2022-12-29T01:48:46;18.87;;;8.40;;
76351;SDS011;65179;47.786;19.138;2022-12-29T01:51:14;20.63;;;9.90;;
76351;SDS011;65179;47.786;19.138;2022-12-29T01:53:40;19.60;;;9.48;;
76351;SDS011;65179;47.786;19.138;2022-12-29T01:56:07;19.37;;;9.68;;
76351;SDS011;65179;47.786;19.138;2022-12-29T01:58:37;17.65;;;8.75;;
76351;SDS011;65179;47.786;19.138;2022-12-29T02:01:06;19.95;;;8.50;;
76351;SDS011;65179;47.786;19.138;2022-12-29T02:03:32;17.10;;;9.43;;
76351;SDS011;65179;47.786;19.138;2022-12-29T02:06:04;22.00;;;8.68;;
76351;SDS011;65179;47.786;19.138;2022-12-29T02:08:34;17.50;;;8.57;;
76351;SDS011;65179;47.786;19.138;2022-12-29T02:11:00;19.40;;;9.02;;
76351;SDS011;65179;47.786;19.138;2022-12-29T02:13:26;24.00;;;9.63;;
76351;SDS011;65179;47.786;19.138;2022-12-29T02:31:45;19.42;;;9.45;;
76351;SDS011;65179;47.786;19.138;2022-12-29T02:47:49;22.02;;;9.43;;
76351;SDS011;65179;47.786;19.138;2022-12-29T02:50:23;16.83;;;8.88;;
76351;SDS011;65179;47.786;19.138;2022-12-29T02:53:05;21.12;;;9.30;;
76351;SDS011;65179;47.786;19.138;2022-12-29T02:55:34;20.90;;;9.97;;
76351;SDS011;65179;47.786;19.138;2022-12-29T02:58:16;17.77;;;9.57;;
76351;SDS011;65179;47.786;19.138;2022-12-29T03:04:04;18.83;;;9.77;;
76351;SDS011;65179;47.786;19.138;2022-12-29T03:15:24;20.45;;;10.30;;
76351;SDS011;65179;47.786;19.138;2022-12-29T03:18:21;21.53;;;9.37;;
76351;SDS011;65179;47.786;19.138;2022-12-29T03:20:54;20.08;;;9.63;;
76351;SDS011;65179;47.786;19.138;2022-12-29T03:23:24;19.52;;;10.02;;
76351;SDS011;65179;47.786;19.138;2022-12-29T03:25:52;19.70;;;9.73;;
76351;SDS011;65179;47.786;19.138;2022-12-29T03:28:25;20.15;;;10.13;;
76351;SDS011;65179;47.786;19.138;2022-12-29T03:30:57;18.93;;;9.27;;
76351;SDS011;65179;47.786;19.138;2022-12-29T03:33:24;20.88;;;10.43;;
76351;SDS011;65179;47.786;19.138;2022-12-29T03:35:53;27.37;;;11.10;;
76351;SDS011;65179;47.786;19.138;2022-12-29T03:38:27;20.90;;;10.13;;
76351;SDS011;65179;47.786;19.138;2022-12-29T03:41:05;19.48;;;10.15;;
76351;SDS011;65179;47.786;19.138;2022-12-29T03:43:35;21.50;;;10.27;;
76351;SDS011;65179;47.786;19.138;2022-12-29T03:46:00;22.92;;;10.38;;
76351;SDS011;65179;47.786;19.138;2022-12-29T03:48:26;22.63;;;10.70;;
76351;SDS011;65179;47.786;19.138;2022-12-29T03:50:51;20.63;;;10.33;;
76351;SDS011;65179;47.786;19.138;2022-12-29T03:53:17;19.87;;;9.27;;
76351;SDS011;65179;47.786;19.138;2022-12-29T03:55:42;25.77;;;10.50;;
76351;SDS011;65179;47.786;19.138;2022-12-29T03:58:07;19.20;;;10.80;;
76351;SDS011;65179;47.786;19.138;2022-12-29T04:00:33;17.87;;;10.13;;
76351;SDS011;65179;47.786;19.138;2022-12-29T04:02:58;23.17;;;11.18;;
76351;SDS011;65179;47.786;19.138;2022-12-29T04:05:24;22.47;;;11.80;;
76351;SDS011;65179;47.786;19.138;2022-12-29T04:07:49;21.50;;;11.23;;
76351;SDS011;65179;47.786;19.138;2022-12-29T04:10:15;22.73;;;11.32;;
76351;SDS011;65179;47.786;19.138;2022-12-29T04:12:40;19.00;;;9.13;;
76351;SDS011;65179;47.786;19.138;2022-12-29T04:15:07;21.73;;;11.07;;
76351;SDS011;65179;47.786;19.138;2022-12-29T04:17:33;22.23;;;11.32;;
76351;SDS011;65179;47.786;19.138;2022-12-29T04:19:59;23.30;;;11.35;;
76351;SDS011;65179;47.786;19.138;2022-12-29T04:22:43;22.83;;;11.10;;
76351;SDS011;65179;47.786;19.138;2022-12-29T04:25:08;21.75;;;10.88;;
76351;SDS011;65179;47.786;19.138;2022-12-29T04:27:34;22.83;;;11.47;;
76351;SDS011;65179;47.786;19.138;2022-12-29T04:29:59;22.63;;;11.27;;
76351;SDS011;65179;47.786;19.138;2022-12-29T04:32:25;22.95;;;12.30;;
76351;SDS011;65179;47.786;19.138;2022-12-29T04:34:50;21.52;;;11.43;;
76351;SDS011;65179;47.786;19.138;2022-12-29T04:37:15;19.67;;;11.50;;
76351;SDS011;65179;47.786;19.138;2022-12-29T04:39:41;26.80;;;11.43;;
76351;SDS011;65179;47.786;19.138;2022-12-29T04:42:07;25.50;;;11.33;;
76351;SDS011;65179;47.786;19.138;2022-12-29T04:44:32;26.20;;;11.63;;
76351;SDS011;65179;47.786;19.138;2022-12-29T04:46:58;22.30;;;11.77;;
76351;SDS011;65179;47.786;19.138;2022-12-29T04:49:23;23.58;;;12.02;;
76351;SDS011;65179;47.786;19.138;2022-12-29T04:51:49;23.15;;;12.13;;
76351;SDS011;65179;47.786;19.138;2022-12-29T04:54:14;18.67;;;10.43;;
76351;SDS011;65179;47.786;19.138;2022-12-29T04:56:40;19.97;;;10.90;;
76351;SDS011;65179;47.786;19.138;2022-12-29T04:59:05;23.02;;;11.77;;
76351;SDS011;65179;47.786;19.138;2022-12-29T05:01:30;23.50;;;11.57;;
76351;SDS011;65179;47.786;19.138;2022-12-29T05:03:56;24.23;;;12.17;;
76351;SDS011;65179;47.786;19.138;2022-12-29T05:06:21;23.17;;;11.20;;
76351;SDS011;65179;47.786;19.138;2022-12-29T05:08:47;27.40;;;12.10;;
76351;SDS011;65179;47.786;19.138;2022-12-29T05:11:12;21.52;;;11.55;;
76351;SDS011;65179;47.786;19.138;2022-12-29T05:13:38;20.33;;;11.17;;
76351;SDS011;65179;47.786;19.138;2022-12-29T05:16:03;22.03;;;11.50;;
76351;SDS011;65179;47.786;19.138;2022-12-29T05:18:29;23.38;;;12.07;;
76351;SDS011;65179;47.786;19.138;2022-12-29T05:20:54;22.43;;;11.43;;
76351;SDS011;65179;47.786;19.138;2022-12-29T05:23:20;23.00;;;12.13;;
76351;SDS011;65179;47.786;19.138;2022-12-29T05:25:45;22.20;;;12.33;;
76351;SDS011;65179;47.786;19.138;2022-12-29T05:28:11;28.92;;;12.70;;
76351;SDS011;65179;47.786;19.138;2022-12-29T05:30:37;26.87;;;12.80;;
76351;SDS011;65179;47.786;19.138;2022-12-29T05:33:02;24.70;;;11.70;;
76351;SDS011;65179;47.786;19.138;2022-12-29T05:35:28;25.57;;;12.83;;
76351;SDS011;65179;47.786;19.138;2022-12-29T05:37:53;26.67;;;12.57;;
76351;SDS011;65179;47.786;19.138;2022-12-29T05:40:19;23.73;;;12.63;;
76351;SDS011;65179;47.786;19.138;2022-12-29T05:42:44;30.02;;;13.40;;
76351;SDS011;65179;47.786;19.138;2022-12-29T05:45:10;25.47;;;12.17;;
76351;SDS011;65179;47.786;19.138;2022-12-29T05:47:35;28.33;;;13.63;;
76351;SDS011;65179;47.786;19.138;2022-12-29T05:50:01;25.00;;;12.17;;
76351;SDS011;65179;47.786;19.138;2022-12-29T05:52:26;27.85;;;13.77;;
76351;SDS011;65179;47.786;19.138;2022-12-29T05:54:52;26.67;;;13.37;;
76351;SDS011;65179;47.786;19.138;2022-12-29T05:57:17;22.83;;;12.90;;
76351;SDS011;65179;47.786;19.138;2022-12-29T05:59:43;27.83;;;14.43;;
76351;SDS011;65179;47.786;19.138;2022-12-29T06:02:09;29.37;;;13.93;;
76351;SDS011;65179;47.786;19.138;2022-12-29T06:04:34;25.45;;;13.35;;
76351;SDS011;65179;47.786;19.138;2022-12-29T06:07:00;31.17;;;13.97;;
76351;SDS011;65179;47.786;19.138;2022-12-29T06:09:25;31.97;;;13.87;;
76351;SDS011;65179;47.786;19.138;2022-12-29T06:11:51;28.73;;;13.68;;
76351;SDS011;65179;47.786;19.138;2022-12-29T06:14:16;30.70;;;13.63;;
76351;SDS011;65179;47.786;19.138;2022-12-29T06:16:42;27.27;;;14.03;;
76351;SDS011;65179;47.786;19.138;2022-12-29T06:19:07;26.70;;;13.03;;
76351;SDS011;65179;47.786;19.138;2022-12-29T06:21:33;28.35;;;13.98;;
76351;SDS011;65179;47.786;19.138;2022-12-29T06:23:58;26.63;;;13.97;;
76351;SDS011;65179;47.786;19.138;2022-12-29T06:26:24;33.33;;;16.37;;
76351;SDS011;65179;47.786;19.138;2022-12-29T06:28:49;35.22;;;16.65;;
76351;SDS011;65179;47.786;19.138;2022-12-29T06:31:15;28.17;;;13.43;;
76351;SDS011;65179;47.786;19.138;2022-12-29T06:33:40;33.07;;;14.67;;
76351;SDS011;65179;47.786;19.138;2022-12-29T06:36:06;29.43;;;14.80;;
76351;SDS011;65179;47.786;19.138;2022-12-29T06:38:31;28.05;;;13.80;;
76351;SDS011;65179;47.786;19.138;2022-12-29T06:40:57;28.80;;;14.33;;
76351;SDS011;65179;47.786;19.138;2022-12-29T06:43:22;31.70;;;15.27;;
76351;SDS011;65179;47.786;19.138;2022-12-29T06:45:48;34.10;;;16.50;;
76351;SDS011;65179;47.786;19.138;2022-12-29T06:48:13;38.65;;;15.32;;
76351;SDS011;65179;47.786;19.138;2022-12-29T06:50:39;32.87;;;16.40;;
76351;SDS011;65179;47.786;19.138;2022-12-29T06:53:04;39.43;;;16.97;;
76351;SDS011;65179;47.786;19.138;2022-12-29T06:55:30;38.03;;;17.47;;
76351;SDS011;65179;47.786;19.138;2022-12-29T06:57:56;40.25;;;18.58;;
76351;SDS011;65179;47.786;19.138;2022-12-29T07:00:22;44.53;;;19.52;;
76351;SDS011;65179;47.786;19.138;2022-12-29T07:02:48;50.10;;;20.63;;
76351;SDS011;65179;47.786;19.138;2022-12-29T07:05:14;50.58;;;21.52;;
76351;SDS011;65179;47.786;19.138;2022-12-29T07:07:39;50.80;;;23.70;;
76351;SDS011;65179;47.786;19.138;2022-12-29T07:10:05;51.00;;;23.47;;
76351;SDS011;65179;47.786;19.138;2022-12-29T07:12:30;45.58;;;20.90;;
76351;SDS011;65179;47.786;19.138;2022-12-29T07:14:56;39.17;;;18.63;;
76351;SDS011;65179;47.786;19.138;2022-12-29T07:17:21;40.23;;;17.53;;
76351;SDS011;65179;47.786;19.138;2022-12-29T07:19:47;31.17;;;15.82;;
76351;SDS011;65179;47.786;19.138;2022-12-29T07:22:12;34.43;;;15.80;;
76351;SDS011;65179;47.786;19.138;2022-12-29T07:24:37;30.57;;;15.73;;
76351;SDS011;65179;47.786;19.138;2022-12-29T07:27:03;33.97;;;15.73;;
76351;SDS011;65179;47.786;19.138;2022-12-29T07:29:29;31.10;;;15.85;;
76351;SDS011;65179;47.786;19.138;2022-12-29T07:31:54;36.00;;;16.37;;
76351;SDS011;65179;47.786;19.138;2022-12-29T07:34:19;33.27;;;15.70;;
76351;SDS011;65179;47.786;19.138;2022-12-29T07:36:45;34.15;;;17.33;;
76351;SDS011;65179;47.786;19.138;2022-12-29T07:39:10;42.77;;;19.07;;
76351;SDS011;65179;47.786;19.138;2022-12-29T07:41:36;36.03;;;17.03;;
76351;SDS011;65179;47.786;19.138;2022-12-29T07:44:02;35.95;;;17.60;;
76351;SDS011;65179;47.786;19.138;2022-12-29T07:46:28;32.30;;;16.10;;
76351;SDS011;65179;47.786;19.138;2022-12-29T07:48:54;34.72;;;17.45;;
76351;SDS011;65179;47.786;19.138;2022-12-29T07:51:19;40.00;;;20.80;;
76351;SDS011;65179;47.786;19.138;2022-12-29T07:53:45;38.20;;;20.00;;
76351;SDS011;65179;47.786;19.138;2022-12-29T07:56:10;39.83;;;18.20;;
76351;SDS011;65179;47.786;19.138;2022-12-29T07:58:35;34.42;;;16.73;;
76351;SDS011;65179;47.786;19.138;2022-12-29T08:01:01;40.30;;;18.67;;
76351;SDS011;65179;47.786;19.138;2022-12-29T08:03:26;41.47;;;19.47;;
76351;SDS011;65179;47.786;19.138;2022-12-29T08:05:52;41.13;;;19.90;;
76351;SDS011;65179;47.786;19.138;2022-12-29T08:08:18;35.67;;;17.55;;
76351;SDS011;65179;47.786;19.138;2022-12-29T08:10:43;38.83;;;18.67;;
76351;SDS011;65179;47.786;19.138;2022-12-29T08:13:09;31.75;;;15.65;;
76351;SDS011;65179;47.786;19.138;2022-12-29T08:15:34;32.73;;;16.47;;
76351;SDS011;65179;47.786;19.138;2022-12-29T08:18:02;32.17;;;17.05;;
76351;SDS011;65179;47.786;19.138;2022-12-29T08:20:28;32.00;;;15.20;;
76351;SDS011;65179;47.786;19.138;2022-12-29T08:22:53;29.52;;;15.60;;
76351;SDS011;65179;47.786;19.138;2022-12-29T08:25:19;32.53;;;15.70;;
76351;SDS011;65179;47.786;19.138;2022-12-29T08:27:44;31.67;;;15.47;;
76351;SDS011;65179;47.786;19.138;2022-12-29T08:30:10;28.48;;;14.65;;
76351;SDS011;65179;47.786;19.138;2022-12-29T08:32:36;26.40;;;14.00;;
76351;SDS011;65179;47.786;19.138;2022-12-29T08:35:01;29.92;;;14.85;;
76351;SDS011;65179;47.786;19.138;2022-12-29T08:37:27;28.93;;;14.63;;
76351;SDS011;65179;47.786;19.138;2022-12-29T08:39:52;30.80;;;15.17;;
76351;SDS011;65179;47.786;19.138;2022-12-29T08:42:18;31.90;;;14.82;;
76351;SDS011;65179;47.786;19.138;2022-12-29T08:44:43;29.60;;;14.90;;
76351;SDS011;65179;47.786;19.138;2022-12-29T08:47:09;27.57;;;14.50;;
76351;SDS011;65179;47.786;19.138;2022-12-29T08:49:35;30.12;;;15.13;;
76351;SDS011;65179;47.786;19.138;2022-12-29T08:52:01;24.60;;;12.77;;
76351;SDS011;65179;47.786;19.138;2022-12-29T08:54:26;25.20;;;12.53;;
76351;SDS011;65179;47.786;19.138;2022-12-29T08:56:52;29.17;;;14.53;;
76351;SDS011;65179;47.786;19.138;2022-12-29T08:59:18;25.17;;;12.82;;
76351;SDS011;65179;47.786;19.138;2022-12-29T09:01:44;26.27;;;13.77;;
76351;SDS011;65179;47.786;19.138;2022-12-29T09:04:09;24.73;;;12.87;;
76351;SDS011;65179;47.786;19.138;2022-12-29T09:06:35;26.03;;;11.10;;
76351;SDS011;65179;47.786;19.138;2022-12-29T09:09:01;25.83;;;12.57;;
76351;SDS011;65179;47.786;19.138;2022-12-29T09:11:27;25.30;;;12.57;;
76351;SDS011;65179;47.786;19.138;2022-12-29T09:13:52;22.98;;;12.80;;
76351;SDS011;65179;47.786;19.138;2022-12-29T09:16:18;21.77;;;12.35;;
76351;SDS011;65179;47.786;19.138;2022-12-29T09:18:46;28.02;;;12.95;;
76351;SDS011;65179;47.786;19.138;2022-12-29T09:21:11;24.40;;;12.20;;
76351;SDS011;65179;47.786;19.138;2022-12-29T09:23:37;22.65;;;12.10;;
76351;SDS011;65179;47.786;19.138;2022-12-29T09:26:03;21.77;;;12.43;;
76351;SDS011;65179;47.786;19.138;2022-12-29T09:28:29;21.73;;;11.67;;
76351;SDS011;65179;47.786;19.138;2022-12-29T09:30:56;26.15;;;13.20;;
76351;SDS011;65179;47.786;19.138;2022-12-29T09:33:22;24.92;;;12.07;;
76351;SDS011;65179;47.786;19.138;2022-12-29T09:35:52;20.70;;;11.87;;
76351;SDS011;65179;47.786;19.138;2022-12-29T09:38:22;21.70;;;11.93;;
76351;SDS011;65179;47.786;19.138;2022-12-29T09:40:53;22.25;;;11.68;;
76351;SDS011;65179;47.786;19.138;2022-12-29T09:43:37;21.67;;;12.03;;
76351;SDS011;65179;47.786;19.138;2022-12-29T09:48:40;27.02;;;14.27;;
76351;SDS011;65179;47.786;19.138;2022-12-29T09:51:13;25.42;;;13.15;;
76351;SDS011;65179;47.786;19.138;2022-12-29T09:53:46;23.27;;;12.85;;
76351;SDS011;65179;47.786;19.138;2022-12-29T09:56:28;24.10;;;12.50;;
76351;SDS011;65179;47.786;19.138;2022-12-29T09:59:02;23.25;;;13.20;;
76351;SDS011;65179;47.786;19.138;2022-12-29T10:04:16;22.98;;;11.70;;
76351;SDS011;65179;47.786;19.138;2022-12-29T10:23:45;21.48;;;12.18;;
76351;SDS011;65179;47.786;19.138;2022-12-29T10:26:22;21.02;;;11.63;;
76351;SDS011;65179;47.786;19.138;2022-12-29T10:28:59;18.73;;;11.07;;
76351;SDS011;65179;47.786;19.138;2022-12-29T10:31:33;22.17;;;11.82;;
76351;SDS011;65179;47.786;19.138;2022-12-29T10:34:06;21.98;;;13.20;;
76351;SDS011;65179;47.786;19.138;2022-12-29T10:36:42;20.35;;;11.93;;
76351;SDS011;65179;47.786;19.138;2022-12-29T10:39:19;19.98;;;11.40;;
76351;SDS011;65179;47.786;19.138;2022-12-29T10:41:48;23.13;;;11.97;;
76351;SDS011;65179;47.786;19.138;2022-12-29T10:44:18;19.27;;;11.57;;
76351;SDS011;65179;47.786;19.138;2022-12-29T10:46:48;21.98;;;12.65;;
76351;SDS011;65179;47.786;19.138;2022-12-29T10:49:22;109.65;;;37.00;;
76351;SDS011;65179;47.786;19.138;2022-12-29T10:51:51;69.78;;;24.67;;
76351;SDS011;65179;47.786;19.138;2022-12-29T10:55:04;55.77;;;18.67;;
76351;SDS011;65179;47.786;19.138;2022-12-29T10:57:26;54.00;;;21.17;;
76351;SDS011;65179;47.786;19.138;2022-12-29T10:59:57;65.35;;;24.85;;
76351;SDS011;65179;47.786;19.138;2022-12-29T11:02:26;24.67;;;13.62;;
76351;SDS011;65179;47.786;19.138;2022-12-29T11:05:01;35.97;;;14.77;;
76351;SDS011;65179;47.786;19.138;2022-12-29T11:07:33;23.17;;;12.40;;
76351;SDS011;65179;47.786;19.138;2022-12-29T11:12:56;19.27;;;11.48;;
76351;SDS011;65179;47.786;19.138;2022-12-29T11:15:42;21.25;;;12.70;;
76351;SDS011;65179;47.786;19.138;2022-12-29T11:18:24;23.58;;;11.90;;
76351;SDS011;65179;47.786;19.138;2022-12-29T11:21:25;19.17;;;11.05;;
76351;SDS011;65179;47.786;19.138;2022-12-29T11:23:59;22.20;;;12.10;;
76351;SDS011;65179;47.786;19.138;2022-12-29T11:26:28;18.30;;;11.52;;
76351;SDS011;65179;47.786;19.138;2022-12-29T11:31:42;22.73;;;12.65;;
76351;SDS011;65179;47.786;19.138;2022-12-29T11:34:16;18.62;;;11.55;;
76351;SDS011;65179;47.786;19.138;2022-12-29T11:37:03;22.40;;;11.88;;
76351;SDS011;65179;47.786;19.138;2022-12-29T11:39:40;20.33;;;12.07;;
76351;SDS011;65179;47.786;19.138;2022-12-29T11:42:17;18.85;;;12.15;;
76351;SDS011;65179;47.786;19.138;2022-12-29T11:44:48;22.73;;;13.00;;
76351;SDS011;65179;47.786;19.138;2022-12-29T11:49:58;25.10;;;12.90;;
76351;SDS011;65179;47.786;19.138;2022-12-29T11:52:28;18.87;;;12.20;;
76351;SDS011;65179;47.786;19.138;2022-12-29T11:54:58;18.83;;;12.02;;
76351;SDS011;65179;47.786;19.138;2022-12-29T11:57:26;19.37;;;11.95;;
76351;SDS011;65179;47.786;19.138;2022-12-29T11:59:53;21.52;;;12.20;;
76351;SDS011;65179;47.786;19.138;2022-12-29T12:05:01;24.42;;;12.55;;
76351;SDS011;65179;47.786;19.138;2022-12-29T12:07:42;20.08;;;11.45;;
76351;SDS011;65179;47.786;19.138;2022-12-29T12:10:16;19.77;;;12.43;;
76351;SDS011;65179;47.786;19.138;2022-12-29T12:12:53;21.35;;;12.73;;
76351;SDS011;65179;47.786;19.138;2022-12-29T12:15:32;21.02;;;13.35;;
76351;SDS011;65179;47.786;19.138;2022-12-29T12:18:08;21.45;;;13.18;;
76351;SDS011;65179;47.786;19.138;2022-12-29T12:23:18;20.17;;;11.70;;
76351;SDS011;65179;47.786;19.138;2022-12-29T12:26:18;19.48;;;11.73;;
76351;SDS011;65179;47.786;19.138;2022-12-29T12:28:52;18.58;;;12.00;;
76351;SDS011;65179;47.786;19.138;2022-12-29T12:31:28;21.10;;;12.30;;
76351;SDS011;65179;47.786;19.138;2022-12-29T12:34:03;21.45;;;12.27;;
76351;SDS011;65179;47.786;19.138;2022-12-29T12:39:41;19.77;;;11.80;;
76351;SDS011;65179;47.786;19.138;2022-12-29T12:42:25;20.83;;;12.23;;
76351;SDS011;65179;47.786;19.138;2022-12-29T12:47:52;24.85;;;13.82;;
76351;SDS011;65179;47.786;19.138;2022-12-29T12:50:26;25.08;;;13.98;;
76351;SDS011;65179;47.786;19.138;2022-12-29T13:02:06;21.75;;;11.75;;
76351;SDS011;65179;47.786;19.138;2022-12-29T13:21:54;27.92;;;13.62;;
76351;SDS011;65179;47.786;19.138;2022-12-29T13:29:35;22.67;;;13.43;;
76351;SDS011;65179;47.786;19.138;2022-12-29T13:32:17;25.60;;;13.50;;
76351;SDS011;65179;47.786;19.138;2022-12-29T13:37:27;28.48;;;15.40;;
76351;SDS011;65179;47.786;19.138;2022-12-29T13:40:03;29.02;;;15.55;;
76351;SDS011;65179;47.786;19.138;2022-12-29T13:42:38;27.77;;;14.40;;
76351;SDS011;65179;47.786;19.138;2022-12-29T13:45:06;26.52;;;14.15;;
76351;SDS011;65179;47.786;19.138;2022-12-29T13:47:48;25.40;;;13.18;;
76351;SDS011;65179;47.786;19.138;2022-12-29T13:50:24;26.08;;;13.40;;
76351;SDS011;65179;47.786;19.138;2022-12-29T14:01:08;28.10;;;16.02;;
76351;SDS011;65179;47.786;19.138;2022-12-29T14:06:21;29.08;;;16.25;;
76351;SDS011;65179;47.786;19.138;2022-12-29T14:08:48;30.00;;;15.85;;
76351;SDS011;65179;47.786;19.138;2022-12-29T14:11:32;26.05;;;14.77;;
76351;SDS011;65179;47.786;19.138;2022-12-29T14:14:03;27.58;;;15.95;;
76351;SDS011;65179;47.786;19.138;2022-12-29T14:16:37;31.37;;;15.43;;
76351;SDS011;65179;47.786;19.138;2022-12-29T14:19:05;29.27;;;16.05;;
76351;SDS011;65179;47.786;19.138;2022-12-29T14:21:35;30.20;;;15.60;;
76351;SDS011;65179;47.786;19.138;2022-12-29T14:24:47;30.88;;;14.85;;
76351;SDS011;65179;47.786;19.138;2022-12-29T14:26:52;35.40;;;21.37;;
76351;SDS011;65179;47.786;19.138;2022-12-29T14:31:49;35.25;;;16.90;;
76351;SDS011;65179;47.786;19.138;2022-12-29T14:37:00;35.03;;;17.95;;
76351;SDS011;65179;47.786;19.138;2022-12-29T14:39:42;36.78;;;18.42;;
76351;SDS011;65179;47.786;19.138;2022-12-29T14:47:38;33.57;;;17.97;;
76351;SDS011;65179;47.786;19.138;2022-12-29T14:50:15;35.28;;;18.45;;
76351;SDS011;65179;47.786;19.138;2022-12-29T14:52:57;29.35;;;16.60;;
76351;SDS011;65179;47.786;19.138;2022-12-29T14:55:43;37.15;;;19.35;;
76351;SDS011;65179;47.786;19.138;2022-12-29T14:58:22;41.25;;;21.83;;
76351;SDS011;65179;47.786;19.138;2022-12-29T15:00:56;33.70;;;17.85;;
76351;SDS011;65179;47.786;19.138;2022-12-29T15:03:32;31.95;;;18.30;;
76351;SDS011;65179;47.786;19.138;2022-12-29T15:06:09;38.42;;;19.80;;
76351;SDS011;65179;47.786;19.138;2022-12-29T15:08:37;57.78;;;27.67;;
76351;SDS011;65179;47.786;19.138;2022-12-29T15:11:13;49.97;;;25.45;;
76351;SDS011;65179;47.786;19.138;2022-12-29T15:13:42;49.20;;;23.90;;
76351;SDS011;65179;47.786;19.138;2022-12-29T15:16:25;72.62;;;36.53;;
76351;SDS011;65179;47.786;19.138;2022-12-29T15:18:51;57.50;;;28.25;;
76351;SDS011;65179;47.786;19.138;2022-12-29T15:21:24;44.40;;;22.15;;
76351;SDS011;65179;47.786;19.138;2022-12-29T15:23:51;41.95;;;21.00;;
76351;SDS011;65179;47.786;19.138;2022-12-29T15:26:17;49.67;;;25.10;;
76351;SDS011;65179;47.786;19.138;2022-12-29T15:28:47;49.90;;;25.58;;
76351;SDS011;65179;47.786;19.138;2022-12-29T15:31:21;49.20;;;24.33;;
76351;SDS011;65179;47.786;19.138;2022-12-29T15:33:50;60.65;;;28.23;;
76351;SDS011;65179;47.786;19.138;2022-12-29T15:38:47;44.13;;;22.30;;
76351;SDS011;65179;47.786;19.138;2022-12-29T15:41:21;40.88;;;21.45;;
76351;SDS011;65179;47.786;19.138;2022-12-29T15:44:20;38.08;;;20.60;;
76351;SDS011;65179;47.786;19.138;2022-12-29T15:46:48;41.83;;;22.27;;
76351;SDS011;65179;47.786;19.138;2022-12-29T15:49:14;37.13;;;20.20;;
76351;SDS011;65179;47.786;19.138;2022-12-29T15:51:41;37.90;;;20.05;;
76351;SDS011;65179;47.786;19.138;2022-12-29T15:54:15;37.13;;;20.10;;
76351;SDS011;65179;47.786;19.138;2022-12-29T15:56:43;41.55;;;20.52;;
76351;SDS011;65179;47.786;19.138;2022-12-29T16:02:10;37.97;;;19.87;;
76351;SDS011;65179;47.786;19.138;2022-12-29T16:04:36;40.10;;;20.42;;
76351;SDS011;65179;47.786;19.138;2022-12-29T16:07:03;37.27;;;18.80;;
76351;SDS011;65179;47.786;19.138;2022-12-29T16:09:32;40.38;;;18.75;;
76351;SDS011;65179;47.786;19.138;2022-12-29T16:12:21;36.67;;;19.17;;
76351;SDS011;65179;47.786;19.138;2022-12-29T16:14:48;38.28;;;19.37;;
76351;SDS011;65179;47.786;19.138;2022-12-29T16:17:21;41.40;;;19.98;;
76351;SDS011;65179;47.786;19.138;2022-12-29T16:19:49;46.93;;;21.87;;
76351;SDS011;65179;47.786;19.138;2022-12-29T16:22:24;59.40;;;27.17;;
76351;SDS011;65179;47.786;19.138;2022-12-29T16:24:51;76.93;;;33.80;;
76351;SDS011;65179;47.786;19.138;2022-12-29T16:27:31;83.85;;;38.88;;
76351;SDS011;65179;47.786;19.138;2022-12-29T16:30:06;108.07;;;47.17;;
76351;SDS011;65179;47.786;19.138;2022-12-29T16:32:49;103.93;;;47.50;;
76351;SDS011;65179;47.786;19.138;2022-12-29T16:35:17;162.68;;;77.35;;
76351;SDS011;65179;47.786;19.138;2022-12-29T16:37:43;148.52;;;70.70;;
76351;SDS011;65179;47.786;19.138;2022-12-29T16:42:56;79.85;;;41.30;;
76351;SDS011;65179;47.786;19.138;2022-12-29T16:50:38;75.17;;;36.77;;
76351;SDS011;65179;47.786;19.138;2022-12-29T16:53:15;72.50;;;36.15;;
76351;SDS011;65179;47.786;19.138;2022-12-29T16:55:54;61.13;;;34.10;;
76351;SDS011;65179;47.786;19.138;2022-12-29T16:58:23;66.62;;;35.92;;
76351;SDS011;65179;47.786;19.138;2022-12-29T17:00:55;66.00;;;38.33;;
76351;SDS011;65179;47.786;19.138;2022-12-29T17:03:23;69.85;;;36.45;;